Time;durP1;ratioP1;P1;durP2;ratioP2;P2;SDS_P1;SDS_P2;PMS_P1;PMS_P2;Temp;Humidity;BMP_temperature;BMP_pressure;BME280_temperature;BME280_humidity;BME280_pressure;Samples;Min_cycle;Max_cycle;Signal;HPM_P1;HPM_P2
2021/10/31 00:00:20;;;;;;;16.30;10.55;;;9.80;99.90;;;;;;1848390;76;21509;-74
2021/10/31 00:02:47;;;;;;;14.20;11.20;;;9.70;99.90;;;;;;1834826;76;21505;-74
2021/10/31 00:05:13;;;;;;;15.08;10.63;;;9.80;99.90;;;;;;1831932;76;21163;-73
2021/10/31 00:07:39;;;;;;;14.58;10.55;;;9.80;99.90;;;;;;1832946;76;21058;-76
2021/10/31 00:10:05;;;;;;;15.93;11.05;;;9.90;99.90;;;;;;1841864;76;21141;-75
2021/10/31 00:12:31;;;;;;;14.65;11.12;;;9.80;99.90;;;;;;1835467;77;21084;-75
2021/10/31 00:14:57;;;;;;;15.25;10.00;;;9.70;99.90;;;;;;1853939;77;21090;-76
2021/10/31 00:17:23;;;;;;;21.48;11.08;;;9.70;99.90;;;;;;1843104;77;21086;-74
2021/10/31 00:19:50;;;;;;;14.63;10.53;;;9.60;99.90;;;;;;1840531;76;21158;-76
2021/10/31 00:22:16;;;;;;;17.48;11.08;;;9.60;99.90;;;;;;1839121;76;21094;-76
2021/10/31 00:24:42;;;;;;;18.92;11.30;;;9.50;99.90;;;;;;1844892;77;21174;-75
2021/10/31 00:27:08;;;;;;;13.98;9.75;;;9.70;99.90;;;;;;1838039;76;21166;-76
2021/10/31 00:29:34;;;;;;;21.20;11.70;;;9.70;99.90;;;;;;1856703;77;21227;-75
2021/10/31 00:32:00;;;;;;;16.50;10.72;;;9.70;99.90;;;;;;1843572;77;21092;-76
2021/10/31 00:34:27;;;;;;;12.55;9.95;;;9.70;99.90;;;;;;1850290;76;21191;-76
2021/10/31 00:36:53;;;;;;;13.80;8.95;;;9.70;99.90;;;;;;1837773;76;21086;-75
2021/10/31 00:39:19;;;;;;;11.35;9.03;;;9.70;99.90;;;;;;1857504;77;21094;-76
2021/10/31 00:41:45;;;;;;;14.95;9.75;;;9.80;99.90;;;;;;1852435;76;21061;-76
2021/10/31 00:44:11;;;;;;;15.00;9.45;;;9.80;99.90;;;;;;1838202;77;21206;-74
2021/10/31 00:46:37;;;;;;;12.47;9.55;;;9.80;99.90;;;;;;1842892;76;21097;-74
2021/10/31 00:49:03;;;;;;;17.35;9.80;;;9.80;99.90;;;;;;1851769;76;21159;-74
2021/10/31 00:51:29;;;;;;;15.10;9.93;;;9.80;99.90;;;;;;1844556;77;21183;-76
2021/10/31 00:53:56;;;;;;;15.10;9.63;;;9.80;99.90;;;;;;1846174;77;21093;-76
2021/10/31 00:56:22;;;;;;;14.90;9.38;;;9.80;99.90;;;;;;1847644;76;21167;-74
2021/10/31 00:58:48;;;;;;;11.65;9.80;;;9.70;99.90;;;;;;1856363;77;21168;-74
2021/10/31 01:01:14;;;;;;;17.60;10.15;;;9.70;99.90;;;;;;1852918;77;21094;-73
2021/10/31 01:03:40;;;;;;;14.68;9.68;;;9.70;99.90;;;;;;1834603;76;21085;-74
2021/10/31 01:06:06;;;;;;;13.18;9.13;;;9.70;99.90;;;;;;1837613;76;21102;-75
2021/10/31 01:08:33;;;;;;;15.55;9.05;;;9.70;99.90;;;;;;1841124;77;21153;-74
2021/10/31 01:10:59;;;;;;;12.30;8.85;;;9.70;99.90;;;;;;1831960;76;21085;-76
2021/10/31 01:13:26;;;;;;;13.62;8.98;;;9.70;99.90;;;;;;1834140;77;21199;-76
2021/10/31 01:15:52;;;;;;;11.97;9.10;;;9.60;99.90;;;;;;1839381;76;21100;-75
2021/10/31 01:18:18;;;;;;;13.75;9.35;;;9.50;99.90;;;;;;1848645;77;21212;-76
2021/10/31 01:20:44;;;;;;;12.47;9.65;;;9.50;99.90;;;;;;1852175;76;21094;-76
2021/10/31 01:23:10;;;;;;;13.72;9.45;;;9.40;99.90;;;;;;1846020;76;21203;-76
2021/10/31 01:25:37;;;;;;;13.10;9.40;;;9.30;99.90;;;;;;1845857;77;21094;-76
2021/10/31 01:28:03;;;;;;;12.98;9.13;;;9.20;99.90;;;;;;1840184;76;21163;-76
2021/10/31 01:30:30;;;;;;;9.73;8.48;;;9.20;99.90;;;;;;1847292;76;21180;-75
2021/10/31 01:32:56;;;;;;;12.37;8.98;;;9.10;99.90;;;;;;1850010;77;21187;-75
2021/10/31 01:35:22;;;;;;;14.38;9.08;;;9.00;99.90;;;;;;1834641;77;21092;-75
2021/10/31 01:37:49;;;;;;;10.18;8.40;;;9.00;99.90;;;;;;1835237;77;21215;-76
2021/10/31 01:40:15;;;;;;;14.83;9.73;;;8.90;99.90;;;;;;1851484;76;21138;-76
2021/10/31 01:42:41;;;;;;;15.68;9.73;;;8.90;99.90;;;;;;1856084;77;21132;-76
2021/10/31 01:45:07;;;;;;;14.30;9.65;;;8.80;99.90;;;;;;1844780;76;21135;-75
2021/10/31 01:47:33;;;;;;;13.05;9.15;;;8.80;99.90;;;;;;1832697;77;21147;-76
2021/10/31 01:50:00;;;;;;;13.80;9.80;;;8.80;99.90;;;;;;1828684;77;21164;-76
2021/10/31 01:52:26;;;;;;;13.58;10.55;;;8.80;99.90;;;;;;1832155;76;21095;-76
2021/10/31 01:54:52;;;;;;;12.55;9.00;;;8.70;99.90;;;;;;1842265;77;21168;-75
2021/10/31 01:57:18;;;;;;;11.78;9.38;;;8.70;99.90;;;;;;1844985;77;21479;-76
2021/10/31 01:59:45;;;;;;;15.75;9.60;;;8.50;99.90;;;;;;1856297;76;21159;-76
2021/10/31 02:02:11;;;;;;;14.00;10.10;;;8.50;99.90;;;;;;1845046;77;21153;-76
2021/10/31 02:04:37;;;;;;;16.02;10.35;;;8.40;99.90;;;;;;1838519;76;21166;-76
2021/10/31 02:07:03;;;;;;;12.10;9.40;;;8.50;99.90;;;;;;1837577;77;21065;-75
2021/10/31 02:09:29;;;;;;;13.65;9.28;;;8.40;99.90;;;;;;1840894;77;21167;-76
2021/10/31 02:11:55;;;;;;;15.88;8.95;;;8.50;99.90;;;;;;1842313;77;21189;-76
2021/10/31 02:14:21;;;;;;;13.62;8.95;;;8.50;99.90;;;;;;1841735;76;21494;-75
2021/10/31 02:16:47;;;;;;;12.47;9.43;;;8.50;99.90;;;;;;1852661;77;21495;-74
2021/10/31 02:19:14;;;;;;;10.00;8.40;;;8.40;99.90;;;;;;1845361;77;21545;-73
2021/10/31 02:21:40;;;;;;;13.50;9.18;;;8.40;99.90;;;;;;1852481;77;21266;-75
2021/10/31 02:24:06;;;;;;;13.25;9.40;;;8.40;99.90;;;;;;1845294;76;21180;-75
2021/10/31 02:26:33;;;;;;;13.20;9.33;;;8.30;99.90;;;;;;1834912;77;21578;-75
2021/10/31 02:28:59;;;;;;;12.23;7.17;;;8.30;99.90;;;;;;1843037;77;21531;-76
2021/10/31 02:31:25;;;;;;;11.85;7.62;;;8.30;99.90;;;;;;1834060;76;21136;-76
2021/10/31 02:33:51;;;;;;;8.60;6.55;;;8.30;99.90;;;;;;1851391;77;21093;-76
2021/10/31 02:36:18;;;;;;;8.10;5.92;;;8.20;99.90;;;;;;1854620;77;21205;-74
2021/10/31 02:38:44;;;;;;;11.75;6.65;;;8.30;99.90;;;;;;1847693;76;21454;-76
2021/10/31 02:41:10;;;;;;;9.43;6.70;;;8.30;99.90;;;;;;1847744;77;21074;-75
2021/10/31 02:43:37;;;;;;;11.60;7.92;;;8.10;99.90;;;;;;1835255;77;21158;-76
2021/10/31 02:46:03;;;;;;;12.88;8.15;;;8.00;99.90;;;;;;1840130;77;21502;-74
2021/10/31 02:48:29;;;;;;;11.50;7.55;;;8.00;99.90;;;;;;1834341;77;21518;-73
2021/10/31 02:50:55;;;;;;;11.83;7.42;;;8.00;99.90;;;;;;1845980;76;21583;-74
2021/10/31 02:53:22;;;;;;;12.85;8.43;;;8.00;99.90;;;;;;1844306;76;21151;-74
2021/10/31 02:55:48;;;;;;;15.60;8.20;;;8.10;99.90;;;;;;1845596;77;21096;-74
2021/10/31 02:58:14;;;;;;;10.93;7.20;;;8.10;99.90;;;;;;1839231;76;21063;-76
2021/10/31 03:00:40;;;;;;;10.75;7.55;;;8.20;99.90;;;;;;1844497;77;21133;-76
2021/10/31 03:03:06;;;;;;;10.13;7.60;;;8.10;99.90;;;;;;1844134;77;21128;-76
2021/10/31 03:05:32;;;;;;;8.58;6.37;;;8.10;99.90;;;;;;1840573;77;21505;-76
2021/10/31 03:07:58;;;;;;;7.70;6.20;;;8.10;99.90;;;;;;1843532;76;21098;-75
2021/10/31 03:10:25;;;;;;;11.30;6.33;;;8.10;99.90;;;;;;1834113;77;21081;-76
2021/10/31 03:12:51;;;;;;;9.95;6.37;;;8.00;99.90;;;;;;1845754;76;21086;-76
2021/10/31 03:15:17;;;;;;;9.38;6.05;;;7.90;99.90;;;;;;1844049;76;21145;-74
2021/10/31 03:17:43;;;;;;;9.98;5.50;;;7.80;99.90;;;;;;1824642;76;21096;-74
2021/10/31 03:20:09;;;;;;;6.83;5.65;;;7.90;99.90;;;;;;1829543;76;21148;-74
2021/10/31 03:22:35;;;;;;;7.72;5.92;;;8.00;99.90;;;;;;1849642;76;21086;-75
2021/10/31 03:25:01;;;;;;;9.00;6.72;;;7.90;99.90;;;;;;1845506;76;21067;-75
2021/10/31 03:27:27;;;;;;;7.12;6.42;;;7.90;99.90;;;;;;1837837;76;21089;-75
2021/10/31 03:29:54;;;;;;;7.03;6.22;;;7.90;99.90;;;;;;1843561;76;21093;-75
2021/10/31 03:32:20;;;;;;;9.05;6.17;;;7.90;99.90;;;;;;1845071;76;21164;-76
2021/10/31 03:34:46;;;;;;;7.33;6.45;;;7.80;99.90;;;;;;1831872;75;21583;-75
2021/10/31 03:37:12;;;;;;;8.70;6.28;;;7.60;99.90;;;;;;1839501;76;21104;-76
2021/10/31 03:39:39;;;;;;;7.78;6.28;;;7.70;99.90;;;;;;1847131;76;21094;-75
2021/10/31 03:42:05;;;;;;;7.37;6.33;;;7.70;99.90;;;;;;1852030;77;21094;-76
2021/10/31 03:44:35;;;;;;;8.05;6.35;;;7.50;99.90;;;;;;1839188;76;21157;-76
2021/10/31 03:46:59;;;;;;;8.28;6.62;;;7.60;99.90;;;;;;1831720;76;21494;-75
2021/10/31 03:49:25;;;;;;;7.22;6.17;;;7.60;99.90;;;;;;1828103;76;21615;-75
2021/10/31 03:51:51;;;;;;;9.80;6.53;;;7.60;99.90;;;;;;1825988;76;21654;-75
2021/10/31 03:54:17;;;;;;;9.03;6.40;;;7.70;99.90;;;;;;1833745;76;21507;-75
2021/10/31 03:56:44;;;;;;;8.98;6.72;;;7.70;99.90;;;;;;1836636;76;21172;-76
2021/10/31 03:59:10;;;;;;;7.30;6.00;;;7.70;99.90;;;;;;1843370;76;21209;-76
2021/10/31 04:01:36;;;;;;;7.25;5.12;;;7.70;99.90;;;;;;1838073;76;21062;-75
2021/10/31 04:04:02;;;;;;;6.37;4.87;;;7.70;99.90;;;;;;1840216;76;21200;-73
2021/10/31 04:06:28;;;;;;;6.83;5.53;;;7.70;99.90;;;;;;1830345;76;21159;-76
2021/10/31 04:08:54;;;;;;;5.97;4.40;;;7.60;99.90;;;;;;1843950;76;21083;-76
2021/10/31 04:11:20;;;;;;;7.17;5.15;;;7.60;99.90;;;;;;1840245;77;21095;-76
2021/10/31 04:13:46;;;;;;;5.42;4.92;;;7.50;99.90;;;;;;1842529;76;21168;-76
2021/10/31 04:16:13;;;;;;;8.28;5.05;;;7.40;99.90;;;;;;1838143;76;21496;-75
2021/10/31 04:18:39;;;;;;;7.65;6.20;;;7.40;99.90;;;;;;1846270;76;21478;-76
2021/10/31 04:21:05;;;;;;;10.72;6.95;;;7.40;99.90;;;;;;1829895;76;21520;-76
2021/10/31 04:23:32;;;;;;;7.60;6.25;;;7.30;99.90;;;;;;1837700;77;21220;-75
2021/10/31 04:25:58;;;;;;;9.73;6.80;;;7.50;99.90;;;;;;1846769;76;21090;-75
2021/10/31 04:28:24;;;;;;;11.38;6.30;;;7.50;99.90;;;;;;1845130;76;21195;-75
2021/10/31 04:30:50;;;;;;;7.22;6.33;;;7.30;99.90;;;;;;1848607;76;21521;-75
2021/10/31 04:33:16;;;;;;;13.43;5.67;;;7.40;99.90;;;;;;1823099;76;21093;-76
2021/10/31 04:35:42;;;;;;;6.45;5.33;;;7.30;99.90;;;;;;1842850;76;21217;-76
2021/10/31 04:38:15;;;;;;;6.85;5.30;;;7.30;99.90;;;;;;1840043;76;21169;-75
2021/10/31 04:40:40;;;;;;;7.40;5.40;;;7.40;99.90;;;;;;1825422;76;21168;-76
2021/10/31 04:43:10;;;;;;;9.78;5.47;;;7.30;99.90;;;;;;1833942;76;21199;-75
2021/10/31 04:45:34;;;;;;;7.10;5.95;;;7.40;99.90;;;;;;1827773;77;21561;-75
2021/10/31 04:48:00;;;;;;;9.15;6.72;;;7.40;99.90;;;;;;1838060;76;21062;-75
2021/10/31 04:50:26;;;;;;;18.00;7.35;;;7.40;99.90;;;;;;1837034;76;21099;-76
2021/10/31 04:52:52;;;;;;;7.28;6.22;;;7.30;99.90;;;;;;1837017;76;21084;-76
2021/10/31 04:55:19;;;;;;;10.23;7.30;;;7.30;99.90;;;;;;1837597;76;21158;-76
2021/10/31 04:57:45;;;;;;;10.23;6.17;;;7.40;99.90;;;;;;1836254;76;21179;-76
2021/10/31 05:00:11;;;;;;;8.30;6.83;;;7.40;99.90;;;;;;1839141;76;21054;-76
2021/10/31 05:02:38;;;;;;;9.68;5.90;;;7.50;99.90;;;;;;1840497;76;21157;-75
2021/10/31 05:05:04;;;;;;;7.25;5.65;;;7.50;99.90;;;;;;1842706;76;21173;-75
2021/10/31 05:07:31;;;;;;;6.90;5.92;;;7.40;99.90;;;;;;1843941;76;21293;-75
2021/10/31 05:09:57;;;;;;;6.92;5.92;;;7.40;99.90;;;;;;1845155;77;21246;-75
2021/10/31 05:12:25;;;;;;;7.55;5.97;;;7.50;99.90;;;;;;1849512;76;21093;-75
2021/10/31 05:14:51;;;;;;;8.10;6.17;;;7.50;99.90;;;;;;1839943;76;21168;-76
2021/10/31 05:17:17;;;;;;;11.22;7.28;;;7.60;99.90;;;;;;1846017;76;21231;-76
2021/10/31 05:19:43;;;;;;;12.07;6.97;;;7.70;99.90;;;;;;1840663;76;21175;-76
2021/10/31 05:22:09;;;;;;;11.00;7.50;;;7.60;99.90;;;;;;1839630;76;21089;-76
2021/10/31 05:24:35;;;;;;;10.65;7.70;;;7.70;99.90;;;;;;1840200;76;21078;-76
2021/10/31 05:27:01;;;;;;;8.03;7.22;;;7.60;99.90;;;;;;1826613;76;21062;-76
2021/10/31 05:29:27;;;;;;;13.15;7.90;;;7.50;99.90;;;;;;1843506;76;21183;-76
2021/10/31 05:31:53;;;;;;;12.33;7.35;;;7.50;99.90;;;;;;1839933;76;21088;-75
2021/10/31 05:34:20;;;;;;;10.68;8.03;;;7.60;99.90;;;;;;1842645;76;21102;-75
2021/10/31 05:36:46;;;;;;;10.48;7.67;;;7.50;99.90;;;;;;1841981;76;21100;-74
2021/10/31 05:39:12;;;;;;;14.55;8.05;;;7.40;99.90;;;;;;1836584;76;21106;-73
2021/10/31 05:41:38;;;;;;;10.80;7.42;;;7.40;99.90;;;;;;1848998;76;21152;-74
2021/10/31 05:44:04;;;;;;;10.23;7.30;;;7.40;99.90;;;;;;1835324;76;21098;-74
2021/10/31 05:46:31;;;;;;;9.50;7.10;;;7.40;99.90;;;;;;1836210;76;21086;-74
2021/10/31 05:48:57;;;;;;;10.45;7.22;;;7.40;99.90;;;;;;1831128;76;21208;-75
2021/10/31 05:51:23;;;;;;;11.48;7.62;;;7.30;99.90;;;;;;1849813;77;21556;-74
2021/10/31 05:53:50;;;;;;;10.90;7.30;;;7.30;99.90;;;;;;1849703;76;21078;-74
2021/10/31 05:56:16;;;;;;;8.80;7.30;;;7.30;99.90;;;;;;1843034;76;21615;-73
2021/10/31 05:58:42;;;;;;;10.48;7.80;;;7.20;99.90;;;;;;1849340;76;21094;-74
2021/10/31 06:01:08;;;;;;;11.03;7.10;;;7.30;99.90;;;;;;1848951;76;21094;-74
2021/10/31 06:03:34;;;;;;;8.08;6.75;;;7.30;99.90;;;;;;1844794;76;21213;-74
2021/10/31 06:06:01;;;;;;;12.05;7.53;;;7.20;99.90;;;;;;1825276;76;21289;-74
2021/10/31 06:08:27;;;;;;;13.20;7.85;;;7.30;99.90;;;;;;1821417;76;21190;-74
2021/10/31 06:10:53;;;;;;;10.50;6.25;;;7.30;99.90;;;;;;1847874;76;21071;-75
2021/10/31 06:13:19;;;;;;;9.33;7.47;;;7.30;99.90;;;;;;1831456;76;21140;-75
2021/10/31 06:15:46;;;;;;;11.88;8.03;;;7.30;99.90;;;;;;1849350;77;21101;-75
2021/10/31 06:18:12;;;;;;;10.00;7.05;;;7.30;99.90;;;;;;1841283;76;21151;-74
2021/10/31 06:20:38;;;;;;;10.82;6.92;;;7.40;99.90;;;;;;1824555;76;21093;-74
2021/10/31 06:23:04;;;;;;;9.90;7.83;;;7.40;99.90;;;;;;1839995;76;21058;-75
2021/10/31 06:25:30;;;;;;;15.38;7.83;;;7.30;99.90;;;;;;1837705;76;21298;-75
2021/10/31 06:27:56;;;;;;;10.88;7.85;;;7.30;99.90;;;;;;1834175;76;21133;-74
2021/10/31 06:30:22;;;;;;;11.75;8.03;;;7.30;99.90;;;;;;1839025;76;21095;-75
2021/10/31 06:32:49;;;;;;;11.30;8.08;;;7.30;99.90;;;;;;1843780;76;21091;-74
2021/10/31 06:35:15;;;;;;;13.25;8.83;;;7.40;99.90;;;;;;1832592;76;21095;-74
2021/10/31 06:37:41;;;;;;;64.67;27.95;;;7.30;99.90;;;;;;1847937;76;21109;-74
2021/10/31 06:40:08;;;;;;;60.88;24.02;;;7.30;99.90;;;;;;1836497;76;21086;-74
2021/10/31 06:42:34;;;;;;;62.55;22.95;;;7.30;99.90;;;;;;1833729;76;21143;-74
2021/10/31 06:45:00;;;;;;;23.92;12.00;;;7.30;99.90;;;;;;1832074;76;21155;-74
2021/10/31 06:47:26;;;;;;;14.28;9.20;;;7.30;99.90;;;;;;1846134;76;21510;-73
2021/10/31 06:49:52;;;;;;;16.23;9.50;;;7.40;99.90;;;;;;1846154;76;21486;-73
2021/10/31 06:52:19;;;;;;;15.95;8.70;;;7.30;99.90;;;;;;1825017;76;21082;-73
2021/10/31 06:54:45;;;;;;;14.38;9.13;;;7.50;99.90;;;;;;1849106;76;21104;-75
2021/10/31 06:57:11;;;;;;;13.95;8.53;;;7.50;99.90;;;;;;1837876;76;21097;-74
2021/10/31 06:59:37;;;;;;;17.45;10.50;;;7.70;99.90;;;;;;1840429;76;21304;-74
2021/10/31 07:02:04;;;;;;;12.35;9.45;;;7.70;99.90;;;;;;1847511;76;21102;-75
2021/10/31 07:04:30;;;;;;;13.32;9.23;;;7.70;99.90;;;;;;1844108;76;21191;-75
2021/10/31 07:06:56;;;;;;;11.57;8.95;;;7.70;99.90;;;;;;1842110;76;21164;-74
2021/10/31 07:09:22;;;;;;;16.10;9.65;;;7.70;99.90;;;;;;1842959;76;21067;-75
2021/10/31 07:11:48;;;;;;;14.78;9.38;;;7.70;99.90;;;;;;1848118;76;21097;-75
2021/10/31 07:14:14;;;;;;;12.70;8.48;;;7.70;99.90;;;;;;1836397;76;21160;-74
2021/10/31 07:16:40;;;;;;;14.93;8.90;;;7.70;99.90;;;;;;1839313;76;21110;-74
2021/10/31 07:19:07;;;;;;;12.47;8.75;;;8.00;99.90;;;;;;1840953;76;21192;-74
2021/10/31 07:21:33;;;;;;;11.38;8.63;;;8.00;99.90;;;;;;1846734;77;21179;-74
2021/10/31 07:23:59;;;;;;;10.80;8.08;;;8.10;99.90;;;;;;1866024;75;22511;-73
2021/10/31 07:26:25;;;;;;;11.95;8.03;;;8.20;99.90;;;;;;1878792;75;21527;-74
2021/10/31 07:28:52;;;;;;;11.93;8.68;;;8.30;99.90;;;;;;1869309;76;21503;-73
2021/10/31 07:31:19;;;;;;;9.20;7.22;;;8.50;99.90;;;;;;1884788;75;21165;-72
2021/10/31 07:33:45;;;;;;;10.93;7.70;;;8.40;99.90;;;;;;1873837;74;21161;-76
2021/10/31 07:36:11;;;;;;;10.23;7.40;;;8.50;99.90;;;;;;1870956;75;21083;-76
2021/10/31 07:38:41;;;;;;;9.25;7.50;;;8.60;99.90;;;;;;1867321;75;21155;-75
2021/10/31 07:41:05;;;;;;;11.50;7.80;;;8.60;99.90;;;;;;1857768;76;21121;-75
2021/10/31 07:43:31;;;;;;;10.93;7.60;;;8.80;99.90;;;;;;1866363;74;21136;-75
2021/10/31 07:45:58;;;;;;;9.50;7.78;;;9.00;99.90;;;;;;1873748;76;21101;-75
2021/10/31 07:48:24;;;;;;;9.88;7.08;;;9.00;99.90;;;;;;1858305;75;21504;-75
2021/10/31 07:50:50;;;;;;;12.40;8.05;;;9.10;99.90;;;;;;1867824;75;21568;-75
2021/10/31 07:53:17;;;;;;;13.38;8.28;;;9.20;99.90;;;;;;1877665;75;21515;-75
2021/10/31 07:55:49;;;;;;;12.82;8.83;;;9.30;99.90;;;;;;1870069;75;21178;-75
2021/10/31 07:58:15;;;;;;;10.80;8.45;;;9.30;99.90;;;;;;1878323;74;21079;-75
2021/10/31 08:00:39;;;;;;;13.72;8.88;;;9.30;99.90;;;;;;1878067;75;21680;-77
2021/10/31 08:03:05;;;;;;;9.70;7.80;;;9.40;99.90;;;;;;1864672;74;21065;-75
2021/10/31 08:05:31;;;;;;;11.63;7.83;;;9.50;99.90;;;;;;1859369;76;21173;-75
2021/10/31 08:07:58;;;;;;;13.88;8.18;;;9.50;99.90;;;;;;1867745;76;21288;-75
2021/10/31 08:10:24;;;;;;;12.60;7.40;;;9.70;99.90;;;;;;1860976;75;21150;-75
2021/10/31 08:12:50;;;;;;;13.03;7.05;;;9.70;99.90;;;;;;1874393;76;21133;-76
2021/10/31 08:15:16;;;;;;;10.15;7.40;;;9.60;99.90;;;;;;1870118;75;21138;-76
2021/10/31 08:17:42;;;;;;;10.38;7.25;;;9.50;99.90;;;;;;1889101;76;21228;-75
2021/10/31 08:20:08;;;;;;;18.50;8.90;;;9.60;99.90;;;;;;1873690;75;21073;-76
2021/10/31 08:22:34;;;;;;;11.55;7.65;;;9.60;99.90;;;;;;1869885;75;21083;-76
2021/10/31 08:25:01;;;;;;;15.28;8.25;;;9.80;99.90;;;;;;1874981;74;21101;-75
2021/10/31 08:27:28;;;;;;;9.10;6.95;;;9.60;99.90;;;;;;1886873;75;21157;-75
2021/10/31 08:29:55;;;;;;;8.00;6.70;;;9.70;99.90;;;;;;1871735;74;21115;-76
2021/10/31 08:32:23;;;;;;;7.25;6.47;;;9.80;99.90;;;;;;1878460;74;21518;-75
2021/10/31 08:34:48;;;;;;;7.40;6.20;;;9.90;99.90;;;;;;1869769;75;21173;-76
2021/10/31 08:37:15;;;;;;;12.00;6.90;;;10.10;99.90;;;;;;1868164;76;21496;-76
2021/10/31 08:39:41;;;;;;;6.87;5.78;;;10.30;99.90;;;;;;1861345;74;21073;-76
2021/10/31 08:42:07;;;;;;;6.47;5.45;;;10.40;99.90;;;;;;1855207;75;21161;-76
2021/10/31 08:44:35;;;;;;;10.00;6.17;;;10.70;99.90;;;;;;1866358;76;21097;-75
2021/10/31 08:47:01;;;;;;;7.00;6.12;;;10.80;99.90;;;;;;1867425;75;21084;-74
2021/10/31 08:49:27;;;;;;;10.30;5.85;;;10.80;99.90;;;;;;1870649;76;21166;-75
2021/10/31 08:51:53;;;;;;;5.92;5.33;;;10.90;99.90;;;;;;1861417;76;21160;-76
2021/10/31 08:54:19;;;;;;;7.58;6.15;;;11.00;99.90;;;;;;1876671;74;21202;-75
2021/10/31 08:56:47;;;;;;;9.08;6.08;;;11.00;99.90;;;;;;1861799;74;21254;-75
2021/10/31 08:59:13;;;;;;;8.38;5.83;;;11.00;99.90;;;;;;1873699;75;21166;-76
2021/10/31 09:01:39;;;;;;;7.08;5.87;;;11.10;99.90;;;;;;1866755;76;21165;-76
2021/10/31 09:04:07;;;;;;;8.90;6.08;;;11.30;99.90;;;;;;1868942;75;21497;-75
2021/10/31 09:06:33;;;;;;;11.20;5.95;;;11.40;99.90;;;;;;1869000;75;21473;-76
2021/10/31 09:08:59;;;;;;;10.68;6.00;;;11.70;99.90;;;;;;1849318;76;21857;-76
2021/10/31 09:11:25;;;;;;;7.62;5.50;;;11.90;99.90;;;;;;1868371;75;21658;-74
2021/10/31 09:13:51;;;;;;;14.53;5.45;;;12.30;99.90;;;;;;1869298;75;21093;-77
2021/10/31 09:16:17;;;;;;;6.35;5.28;;;12.80;99.90;;;;;;1869148;75;21234;-77
2021/10/31 09:18:43;;;;;;;5.72;4.60;;;13.30;99.90;;;;;;1885314;75;21083;-76
2021/10/31 09:21:10;;;;;;;8.93;5.20;;;13.70;99.90;;;;;;1872704;75;21125;-75
2021/10/31 09:23:37;;;;;;;5.97;4.78;;;13.80;99.90;;;;;;1870497;74;21150;-75
2021/10/31 09:26:03;;;;;;;9.20;5.00;;;13.90;99.90;;;;;;1884278;75;21377;-76
2021/10/31 09:28:29;;;;;;;11.45;5.45;;;13.90;99.90;;;;;;1868540;74;21093;-76
2021/10/31 09:30:55;;;;;;;7.35;4.95;;;14.20;99.90;;;;;;1863746;76;21171;-75
2021/10/31 09:33:22;;;;;;;6.92;5.20;;;14.20;99.90;;;;;;1867171;75;21236;-74
2021/10/31 09:35:51;;;;;;;7.42;5.00;;;14.20;99.90;;;;;;1877541;75;21091;-75
2021/10/31 09:38:17;;;;;;;8.40;5.50;;;14.60;99.90;;;;;;1858348;75;21139;-75
2021/10/31 09:40:43;;;;;;;4.97;4.47;;;15.10;99.90;;;;;;1875022;75;21184;-75
2021/10/31 09:43:09;;;;;;;5.25;4.60;;;15.10;99.90;;;;;;1870525;75;21174;-76
2021/10/31 09:45:36;;;;;;;5.30;4.80;;;15.20;99.90;;;;;;1873691;74;21100;-76
2021/10/31 09:48:02;;;;;;;8.60;4.70;;;15.50;99.90;;;;;;1887257;74;21084;-75
2021/10/31 09:50:28;;;;;;;5.17;4.67;;;16.10;99.90;;;;;;1868842;75;21224;-76
2021/10/31 09:52:54;;;;;;;6.72;4.72;;;16.20;99.90;;;;;;1879952;74;21157;-78
2021/10/31 09:55:20;;;;;;;5.00;4.50;;;16.70;99.90;;;;;;1864571;75;21049;-77
2021/10/31 09:57:48;;;;;;;6.67;4.85;;;17.10;99.90;;;;;;1882194;75;21061;-77
2021/10/31 10:00:14;;;;;;;5.42;4.70;;;17.00;99.90;;;;;;1868885;74;21084;-78
2021/10/31 10:05:26;;;;;;;7.70;4.78;;;17.30;99.90;;;;;;1867650;75;21125;-77
2021/10/31 10:07:52;;;;;;;5.92;4.90;;;17.50;99.90;;;;;;1862910;75;21152;-76
2021/10/31 10:10:18;;;;;;;5.92;4.60;;;17.50;99.90;;;;;;1870644;76;21080;-77
2021/10/31 10:12:44;;;;;;;7.40;4.97;;;17.60;99.90;;;;;;1872778;74;21170;-77
2021/10/31 10:15:12;;;;;;;6.97;5.28;;;17.10;99.90;;;;;;1882116;74;21103;-78
2021/10/31 10:17:40;;;;;;;6.87;4.90;;;17.20;99.90;;;;;;1876978;75;21171;-77
2021/10/31 10:20:06;;;;;;;4.90;4.25;;;17.70;99.90;;;;;;1868021;75;21289;-78
2021/10/31 10:22:37;;;;;;;7.17;4.53;;;18.40;99.90;;;;;;1857074;75;21136;-78
2021/10/31 10:25:00;;;;;;;9.25;4.37;;;18.80;99.90;;;;;;1866476;75;21129;-78
2021/10/31 10:27:27;;;;;;;6.67;5.17;;;18.80;99.90;;;;;;1864333;76;21098;-78
2021/10/31 10:29:54;;;;;;;7.62;4.55;;;18.50;99.90;;;;;;1890572;74;21154;-77
2021/10/31 10:32:20;;;;;;;6.42;5.00;;;18.70;99.90;;;;;;1873020;75;21177;-77
2021/10/31 10:34:52;;;;;;;6.67;4.80;;;18.90;99.90;;;;;;1864023;75;21056;-77
2021/10/31 10:37:14;;;;;;;6.10;4.62;;;18.90;99.90;;;;;;1871381;75;21154;-78
2021/10/31 10:39:43;;;;;;;6.60;4.92;;;19.10;99.90;;;;;;1869301;76;21057;-77
2021/10/31 10:42:08;;;;;;;5.97;4.80;;;19.10;99.90;;;;;;1873587;74;21555;-75
2021/10/31 10:44:34;;;;;;;5.22;4.58;;;19.50;99.90;;;;;;1879732;74;21575;-78
2021/10/31 10:47:00;;;;;;;5.30;4.10;;;19.60;99.90;;;;;;1879830;75;21488;-75
2021/10/31 10:49:26;;;;;;;5.12;4.20;;;19.80;99.90;;;;;;1884494;74;21083;-77
2021/10/31 10:51:52;;;;;;;6.47;4.40;;;20.30;99.90;;;;;;1846973;75;21082;-77
2021/10/31 10:54:18;;;;;;;11.15;3.50;;;20.60;99.90;;;;;;1858611;76;21209;-75
2021/10/31 10:56:44;;;;;;;3.95;3.55;;;21.00;99.90;;;;;;1856751;75;21085;-75
2021/10/31 10:59:11;;;;;;;4.47;3.80;;;21.70;99.90;;;;;;1877734;75;21206;-76
2021/10/31 11:01:37;;;;;;;8.28;3.98;;;21.60;99.90;;;;;;1889009;74;21092;-74
2021/10/31 11:04:03;;;;;;;2.90;2.62;;;21.40;99.90;;;;;;1876824;76;21144;-75
2021/10/31 11:06:29;;;;;;;3.08;2.75;;;21.60;99.90;;;;;;1866221;74;21087;-76
2021/10/31 11:08:55;;;;;;;3.12;2.83;;;21.60;99.90;;;;;;1867268;75;21207;-76
2021/10/31 11:11:21;;;;;;;3.40;3.05;;;21.70;99.90;;;;;;1872212;74;21088;-76
2021/10/31 11:13:48;;;;;;;3.47;3.00;;;21.20;99.90;;;;;;1888755;75;21198;-76
2021/10/31 11:16:14;;;;;;;3.50;3.20;;;21.70;99.90;;;;;;1869629;74;21465;-75
2021/10/31 11:18:40;;;;;;;3.50;3.08;;;21.80;99.90;;;;;;1871206;76;21582;-76
2021/10/31 11:21:07;;;;;;;4.70;2.70;;;21.50;99.90;;;;;;1866777;75;21519;-76
2021/10/31 11:23:33;;;;;;;5.22;3.42;;;21.80;99.90;;;;;;1866182;75;21165;-76
2021/10/31 11:26:00;;;;;;;5.30;2.92;;;21.80;99.90;;;;;;1880439;75;21166;-76
2021/10/31 11:28:26;;;;;;;4.05;2.60;;;22.20;99.90;;;;;;1867414;75;21065;-76
2021/10/31 11:30:53;;;;;;;5.85;2.87;;;22.70;99.90;;;;;;1876106;76;21092;-76
2021/10/31 11:33:19;;;;;;;2.92;2.45;;;22.90;99.90;;;;;;1870369;76;21080;-76
2021/10/31 11:35:45;;;;;;;3.60;2.45;;;23.10;99.90;;;;;;1875499;75;21261;-76
2021/10/31 11:38:11;;;;;;;3.58;2.67;;;22.70;99.90;;;;;;1882044;76;21060;-76
2021/10/31 11:40:38;;;;;;;3.25;2.47;;;23.00;99.90;;;;;;1876135;75;21216;-75
2021/10/31 11:43:04;;;;;;;2.80;2.35;;;23.30;99.90;;;;;;1882738;75;21091;-76
2021/10/31 11:45:30;;;;;;;2.47;2.27;;;23.70;99.90;;;;;;1882118;75;21255;-76
2021/10/31 11:47:56;;;;;;;2.67;2.10;;;23.60;99.90;;;;;;1859670;76;21061;-76
2021/10/31 11:50:22;;;;;;;2.47;1.90;;;24.10;99.90;;;;;;1873372;76;21091;-76
2021/10/31 11:52:48;;;;;;;1.90;1.80;;;24.30;99.90;;;;;;1862859;75;21280;-74
2021/10/31 11:55:15;;;;;;;2.17;1.98;;;23.90;99.90;;;;;;1877996;76;21171;-74
2021/10/31 11:57:41;;;;;;;1.72;1.60;;;23.90;99.90;;;;;;1869511;76;21150;-74
2021/10/31 12:00:08;;;;;;;5.25;1.95;;;24.40;99.90;;;;;;1874312;75;21064;-74
2021/10/31 12:02:36;;;;;;;2.47;2.00;;;24.20;99.90;;;;;;1872869;75;21065;-74
2021/10/31 12:05:18;;;;;;;1.50;1.40;;;24.20;99.90;;;;;;1842822;76;21528;-74
2021/10/31 12:07:43;;;;;;;1.57;1.47;;;24.60;99.90;;;;;;1878320;74;21209;-74
2021/10/31 12:10:09;;;;;;;1.40;1.30;;;24.80;99.90;;;;;;1880789;74;21173;-74
2021/10/31 12:12:36;;;;;;;1.67;1.57;;;25.20;99.90;;;;;;1853953;76;21092;-75
2021/10/31 12:15:02;;;;;;;6.45;1.47;;;25.70;99.90;;;;;;1856616;75;21072;-75
2021/10/31 12:17:28;;;;;;;2.95;1.50;;;25.90;99.90;;;;;;1850181;75;21211;-77
2021/10/31 12:19:54;;;;;;;2.72;1.22;;;25.50;99.90;;;;;;1866456;75;21174;-76
2021/10/31 12:22:20;;;;;;;3.22;1.32;;;26.20;99.90;;;;;;1872285;75;21101;-76
2021/10/31 12:24:46;;;;;;;2.62;1.40;;;26.00;99.90;;;;;;1864797;75;21215;-76
2021/10/31 12:27:13;;;;;;;1.92;1.30;;;26.00;99.90;;;;;;1874803;75;21099;-75
2021/10/31 12:29:40;;;;;;;1.00;1.00;;;26.30;99.80;;;;;;1868616;76;21084;-76
2021/10/31 12:32:07;;;;;;;1.12;1.10;;;26.80;97.80;;;;;;1884558;74;21176;-76
2021/10/31 12:34:33;;;;;;;7.03;1.60;;;25.90;98.20;;;;;;1863554;76;21538;-76
2021/10/31 12:36:59;;;;;;;1.55;1.20;;;25.80;99.90;;;;;;1879057;75;21115;-76
2021/10/31 12:39:32;;;;;;;1.95;0.93;;;26.50;98.00;;;;;;1878914;75;21097;-77
2021/10/31 12:41:58;;;;;;;1.40;0.88;;;26.70;95.00;;;;;;1850299;76;21548;-76
2021/10/31 12:44:27;;;;;;;0.72;0.72;;;26.40;93.40;;;;;;1865728;75;21052;-76